Data for 06/24/2008

Time Sea-Level Adjusted Pressure Absolute Pressure Temperature Relative Humidity Dew Point   
(mb) (inHg) (mb) (inHg) (C) (F) (%) (C) (F)
00:05 1017 30.03 847 25.01 16.7 62 46 5.2 41.3
00:10 1017 30.03 847 25.01 16.4 61.6 48 5.6 42
00:15 1017 30.03 846 24.98 16.2 61.1 47 5.1 41.1
00:20 1017 30.03 846 24.98 16.5 61.7 43 4 39.3
00:25 1017 30.03 846 24.98 16.9 62.4 42 4 39.2
00:30 1017 30.03 846 24.98 17.2 63 42 4.5 40
00:35 1017 30.03 846 24.98 17.3 63.1 44 5 41
00:40 1017 30.03 846 24.98 17.5 63.4 45 5.5 41.8
00:45 1017 30.03 846 24.98 17.4 63.4 47 6 42.8
00:50 1017 30.03 846 24.98 17.6 63.6 47 6.2 43.2
00:55 1017 30.03 846 24.98 17.7 63.9 47 6.3 43.3
01:00 1017 30.03 846 24.98 17.9 64.1 47 6.4 43.5
01:05 1017 30.03 846 24.98 17.9 64.3 47 6.6 43.8
01:10 1017 30.03 846 24.98 18 64.4 47 6.6 43.8
01:15 1017 30.03 846 24.98 18 64.4 48 6.8 44.2
01:20 1017 30.03 846 24.98 17.8 64.1 48 6.7 44
01:25 1017 30.03 846 24.98 17.9 64.2 48 6.7 44.1
01:30 1017 30.03 846 24.98 17.9 64.3 48 6.8 44.3
01:35 1017 30.03 846 24.98 17.8 64.1 49 7 44.7
01:40 1017 30.03 846 24.98 17.3 63.2 51 7.1 44.8
01:45 1017 30.03 846 24.98 16.9 62.5 49 6.4 43.5
01:50 1017 30.03 846 24.98 16.9 62.4 48 6 42.8
01:55 1017 30.03 846 24.98 16.8 62.2 47 5.6 42
02:00 1017 30.03 846 24.98 16.8 62.3 47 5.5 42
02:05 1017 30.03 846 24.98 16.5 61.8 46 5.1 41.2
02:10 1017 30.03 847 25.01 16.7 62 48 5.8 42.4
02:15 1017 30.03 847 25.01 16.3 61.4 54 7.1 44.7
02:20 1017 30.03 847 25.01 15.8 60.5 56 7.1 44.9
02:25 1017 30.03 847 25.01 15.3 59.5 60 7.7 45.9
02:30 1017 30.03 847 25.01 14.7 58.5 62 7.5 45.5
02:35 1017 30.03 847 25.01 14 57.2 63 7.2 45
02:40 1017 30.03 847 25.01 13.4 56.1 64 6.7 44.1
02:45 1018 30.06 847 25.01 13.1 55.6 65 6.7 44.1
02:50 1018 30.06 847 25.01 12.7 54.9 66 6.5 43.7
02:55 1018 30.06 847 25.01 12.6 54.7 66 6.5 43.6
03:00 1017 30.03 847 25.01 12.7 54.9 65 6.3 43.3
03:05 1017 30.03 847 25.01 12.7 54.9 65 6.3 43.3
03:10 1017 30.03 847 25.01 12.5 54.6 66 6.4 43.4
03:15 1018 30.06 847 25.01 12.2 54 67 6.4 43.4
03:20 1018 30.06 847 25.01 12 53.5 68 6.3 43.4
03:25 1017 30.03 847 25.01 12 53.6 67 6 42.8
03:30 1018 30.06 847 25.01 12.2 53.9 67 6.2 43.1
03:35 1018 30.06 847 25.01 12.1 53.7 68 6.3 43.3
03:40 1018 30.06 847 25.01 11.9 53.5 67 6.1 42.9
03:45 1018 30.06 847 25.01 12.3 54.2 66 6.3 43.3
03:50 1018 30.06 847 25.01 12.1 53.9 68 6.5 43.7
03:55 1018 30.06 847 25.01 12 53.6 67 6.1 42.9
04:00 1018 30.06 847 25.01 12.1 53.7 68 6.3 43.4
04:05 1018 30.06 847 25.01 11.8 53.3 69 6.4 43.5
04:10 1018 30.06 847 25.01 11.6 52.9 69 6.2 43.2
04:15 1018 30.06 847 25.01 11.7 53 69 6.2 43.2
04:20 1018 30.06 847 25.01 11.8 53.2 70 6.5 43.6
04:25 1018 30.06 847 25.01 11.8 53.2 68 6 42.9
04:30 1018 30.06 847 25.01 12.1 53.7 68 6.4 43.5
04:35 1018 30.06 847 25.01 12 53.5 68 6.3 43.3
04:40 1018 30.06 847 25.01 12.1 53.7 67 6.2 43.2
04:45 1018 30.06 847 25.01 12.1 53.8 67 6.2 43.2
04:50 1018 30.06 847 25.01 12.1 53.8 67 6.1 43
04:55 1018 30.06 847 25.01 12.2 53.9 67 6.3 43.4
05:00 1018 30.06 848 25.04 11.9 53.4 68 6.2 43.1
05:05 1018 30.06 848 25.04 11.9 53.4 67 6.1 42.9
05:10 1018 30.06 848 25.04 12 53.6 67 6.1 42.9
05:15 1018 30.06 848 25.04 12 53.5 66 5.9 42.6
05:20 1019 30.09 848 25.04 12.1 53.8 65 5.8 42.5
05:25 1019 30.09 848 25.04 12.2 54 63 5.4 41.7
05:30 1019 30.09 848 25.04 12.3 54.1 65 5.9 42.7
05:35 1019 30.09 848 25.04 12.1 53.7 65 5.7 42.3
05:40 1019 30.09 848 25.04 12 53.6 64 5.4 41.8
05:45 1019 30.09 848 25.04 12.2 53.9 63 5.3 41.6
05:50 1019 30.09 848 25.04 12.3 54.2 61 5.1 41.2
05:55 1019 30.09 848 25.04 12.6 54.6 60 5.1 41.1
06:00 1019 30.09 848 25.04 12.6 54.7 61 5.4 41.8
06:05 1019 30.09 848 25.04 12.6 54.7 59 4.9 40.7
06:10 1019 30.09 848 25.04 12.9 55.2 58 4.9 40.8
06:15 1019 30.09 848 25.04 13.1 55.5 57 4.8 40.7
06:20 1019 30.09 848 25.04 12.9 55.2 59 5.1 41.1
06:25 1019 30.09 848 25.04 12.9 55.2 59 5.1 41.3
06:30 1019 30.09 848 25.04 12.8 55.1 60 5.4 41.7
06:35 1019 30.09 848 25.04 12.8 55 57 4.5 40
06:40 1019 30.09 848 25.04 13.1 55.7 58 5.1 41.2
06:45 1019 30.09 848 25.04 13.4 56 56 4.9 40.8
06:50 1019 30.09 848 25.04 13.5 56.3 60 5.9 42.6
06:55 1019 30.09 848 25.04 13.4 56 60 5.8 42.4
07:00 1019 30.09 848 25.04 13.1 55.5 59 5.4 41.7
07:05 1019 30.09 848 25.04 13.4 56 57 5.2 41.3
07:10 1019 30.09 848 25.04 13.6 56.6 57 5.3 41.5
07:15 1019 30.09 848 25.04 13.9 57 56 5.3 41.5
07:20 1019 30.09 848 25.04 14.2 57.5 56 5.6 42
07:25 1019 30.09 848 25.04 14.6 58.3 55 5.7 42.3
07:30 1019 30.09 848 25.04 14.6 58.3 56 6 42.8
07:35 1019 30.09 848 25.04 14.7 58.4 55 5.7 42.3
07:40 1019 30.09 849 25.07 15.1 59.3 52 5.3 41.6
07:45 1019 30.09 849 25.07 15.5 60 50 5.2 41.4
07:50 1019 30.09 849 25.07 16.2 61.2 48 5.4 41.7
07:55 1019 30.09 849 25.07 16.5 61.7 48 5.6 42.1
08:00 1019 30.09 849 25.07 16.3 61.4 47 5.3 41.5
08:05 1020 30.12 849 25.07 16.4 61.4 48 5.4 41.8
08:10 1020 30.12 849 25.07 17.1 62.7 46 5.5 41.8
08:15 1020 30.12 849 25.07 17.5 63.5 44 5.1 41.2
08:20 1020 30.12 849 25.07 18.1 64.5 41 4.7 40.4
08:25 1020 30.12 849 25.07 18.3 64.9 40 4.7 40.4
08:30 1020 30.12 849 25.07 17.6 63.6 43 5 41.1
08:35 1020 30.12 849 25.07 18.4 65.1 39 4.4 39.8
08:40 1020 30.12 849 25.07 18.5 65.2 38 4 39.1
08:45 1020 30.12 849 25.07 18.9 66 38 4.4 39.8
08:50 1020 30.12 849 25.07 19.5 67.2 37 4.5 40.2
08:55 1020 30.12 849 25.07 19.2 66.5 39 5.1 41.2
09:00 1020 30.12 849 25.07 19.3 66.7 39 5.3 41.5
09:05 1020 30.12 849 25.07 19.3 66.7 37 4.5 40.1
09:10 1020 30.12 849 25.07 19.5 67 38 4.9 40.9
09:15 1020 30.12 849 25.07 19.5 67.1 34 3.3 37.9
09:20 1020 30.12 849 25.07 19.5 67 33 3.1 37.5
09:25 1020 30.12 849 25.07 19.8 67.7 34 3.8 38.9
09:30 1020 30.12 849 25.07 19.9 67.9 34 3.7 38.6
09:35 1020 30.12 849 25.07 20.1 68.1 33 3.4 38.1
09:40 1020 30.12 849 25.07 20 67.9 33 3.3 38
09:45 1020 30.12 849 25.07 20.6 69 32 3.4 38.2
09:50 1020 30.12 849 25.07 20.7 69.3 31 3.1 37.5
09:55 1020 30.12 849 25.07 20.2 68.3 31 2.8 37
10:00 1020 30.12 849 25.07 20.1 68.1 31 2.4 36.3
10:05 1020 30.12 849 25.07 20.2 68.3 33 3.4 38.2
10:10 1020 30.12 849 25.07 20.1 68.1 34 3.8 38.8
10:15 1020 30.12 849 25.07 20.4 68.7 36 5 40.9
10:20 1020 30.12 849 25.07 20.1 68.2 35 4.3 39.7
10:25 1020 30.12 849 25.07 19.9 67.8 34 3.9 39
10:30 1020 30.12 849 25.07 19.9 67.8 35 4.2 39.6
10:35 1020 30.12 849 25.07 20.2 68.3 36 4.6 40.3
10:40 1020 30.12 849 25.07 20.4 68.8 32 3.3 38
10:45 1020 30.12 849 25.07 20.5 68.8 33 3.7 38.6
10:50 1020 30.12 849 25.07 21 69.7 32 3.9 39
10:55 1020 30.12 849 25.07 21.3 70.3 30 3.2 37.7
11:00 1020 30.12 849 25.07 21.2 70.1 31 3.4 38.1
11:05 1020 30.12 849 25.07 21 69.7 30 3.1 37.6
11:10 1020 30.12 849 25.07 21.4 70.4 31 3.6 38.5
11:15 1020 30.12 849 25.07 21.3 70.4 32 4.4 39.8
11:20 1020 30.12 849 25.07 21.7 71 30 3.8 38.8
11:25 1020 30.12 849 25.07 22 71.6 31 4.4 39.9
11:30 1020 30.12 849 25.07 22.1 71.8 30 3.7 38.7
11:35 1020 30.12 849 25.07 22.1 71.7 30 3.8 38.8
11:40 1020 30.12 849 25.07 21.6 70.8 33 4.6 40.3
11:45 1020 30.12 849 25.07 22.2 72 29 3.6 38.5
11:50 1020 30.12 849 25.07 22.3 72.2 29 3.6 38.5
11:55 1020 30.12 849 25.07 22.4 72.3 29 3.7 38.7
12:00 1020 30.12 849 25.07 22.6 72.7 30 4.5 40
12:05 1020 30.12 849 25.07 21.6 70.9 32 4.4 39.9
12:10 1020 30.12 849 25.07 21 69.7 31 3.4 38.2
12:15 1020 30.12 849 25.07 21.2 70.1 32 4.1 39.4
12:20 1019 30.09 849 25.07 21.7 71.1 31 4.1 39.5
12:25 1020 30.12 849 25.07 21 69.9 31 3.4 38.1
12:30 1020 30.12 849 25.07 21.3 70.3 30 3.4 38.2
12:35 1019 30.09 849 25.07 21.2 70.1 32 3.9 39.1
12:40 1019 30.09 849 25.07 21.4 70.4 31 3.8 38.9
12:45 1019 30.09 849 25.07 21.9 71.5 31 4.4 40
12:50 1019 30.09 849 25.07 22.7 72.8 31 4.7 40.4
12:55 1019 30.09 849 25.07 22.5 72.6 31 4.7 40.5
13:00 1019 30.09 849 25.07 22.3 72.1 32 5.1 41.2
13:05 1019 30.09 848 25.04 22.9 73.2 31 5.1 41.1
13:10 1019 30.09 848 25.04 22.9 73.3 31 4.9 40.9
13:15 1019 30.09 849 25.07 23.7 74.7 29 4.8 40.7
13:20 1019 30.09 849 25.07 23 73.3 33 5.8 42.5
13:25 1019 30.09 849 25.07 23.1 73.6 30 5 41
13:30 1019 30.09 848 25.04 23.5 74.2 31 5.5 41.8
13:35 1019 30.09 848 25.04 23.2 73.7 31 5.4 41.8
13:40 1019 30.09 849 25.07 22.1 71.9 34 5.7 42.3
13:45 1019 30.09 849 25.07 22.4 72.4 33 5.4 41.7
13:50 1019 30.09 848 25.04 23.7 74.6 31 5.9 42.6
13:55 1019 30.09 848 25.04 23.4 74.1 33 6.6 43.8
14:00 1019 30.09 848 25.04 22.6 72.7 31 5 41.1
14:05 1019 30.09 848 25.04 23.6 74.5 29 4.9 40.9
14:10 1019 30.09 848 25.04 23.3 73.9 31 5.4 41.7
14:15 1019 30.09 848 25.04 24.1 75.3 29 5.2 41.3
14:20 1019 30.09 848 25.04 24 75.2 28 4.7 40.5
14:25 1019 30.09 848 25.04 24.2 75.5 27 4.4 39.9
14:30 1019 30.09 848 25.04 24.7 76.5 28 5.1 41.2
14:35 1019 30.09 848 25.04 24.6 76.2 27 4.7 40.5
14:40 1019 30.09 848 25.04 24 75.2 30 5.4 41.8
14:45 1019 30.09 848 25.04 24.4 76 27 4.6 40.2
14:50 1019 30.09 848 25.04 23.9 75.1 28 4.4 39.9
14:55 1019 30.09 848 25.04 24.8 76.6 27 4.7 40.5
15:00 1019 30.09 848 25.04 24.5 76 28 5.1 41.3
15:05 1019 30.09 848 25.04 24.8 76.7 28 5.2 41.4
15:10 1019 30.09 848 25.04 24.9 76.8 27 4.6 40.3
15:15 1019 30.09 848 25.04 24.5 76 27 4.3 39.8
15:20 1019 30.09 848 25.04 23.6 74.5 27 3.9 39
15:25 1019 30.09 848 25.04 24.1 75.3 27 4.2 39.5
15:30 1019 30.09 848 25.04 25.4 77.7 26 5 41
15:35 1019 30.09 848 25.04 26.1 78.9 25 4.7 40.4
15:40 1019 30.09 848 25.04 26.6 79.9 24 4.4 40
15:45 1019 30.09 848 25.04 26.1 78.9 24 4.3 39.8
15:50 1019 30.09 848 25.04 24.9 76.8 25 3.7 38.7
15:55 1019 30.09 848 25.04 24.9 76.8 25 3.6 38.5
16:00 1019 30.09 848 25.04 24.9 76.9 25 3.6 38.4
16:05 1018 30.06 848 25.04 25.9 78.5 24 4.3 39.7
16:10 1018 30.06 848 25.04 25.1 77.1 25 4.1 39.4
16:15 1018 30.06 848 25.04 24.4 75.9 26 3.6 38.5
16:20 1018 30.06 848 25.04 25 76.9 25 3.6 38.6
16:25 1018 30.06 848 25.04 26.5 79.7 23 3.9 39
16:30 1018 30.06 848 25.04 26.4 79.5 25 4.8 40.7
16:35 1018 30.06 848 25.04 25.6 78 24 3.7 38.7
16:40 1018 30.06 847 25.01 25.8 78.5 25 4.3 39.8
16:45 1018 30.06 847 25.01 24.6 76.3 26 4.1 39.4
16:50 1018 30.06 847 25.01 25.2 77.3 25 3.8 38.8
16:55 1018 30.06 847 25.01 25.7 78.3 24 3.9 39
17:00 1018 30.06 847 25.01 25.6 78 24 3.8 38.9
17:05 1018 30.06 847 25.01 25.4 77.8 24 3.8 38.8
17:10 1018 30.06 847 25.01 24.9 76.8 25 3.8 38.9
17:15 1018 30.06 847 25.01 25.6 78.1 23 3.4 38.2
17:20 1018 30.06 847 25.01 26 78.8 24 4 39.2
17:25 1018 30.06 847 25.01 26.3 79.4 22 3.3 38
17:30 1018 30.06 847 25.01 25.4 77.8 26 4.9 40.8
17:35 1018 30.06 847 25.01 25.1 77.2 24 3.4 38.2
17:40 1018 30.06 847 25.01 25.4 77.7 23 3.2 37.8
17:45 1018 30.06 847 25.01 25.6 78.1 23 3.1 37.6
17:50 1018 30.06 847 25.01 26.2 79.2 23 3.5 38.3
17:55 1018 30.06 847 25.01 25.7 78.3 24 3.6 38.5
18:00 1018 30.06 847 25.01 25.6 78.1 23 3.2 37.8
18:05 1018 30.06 847 25.01 25.2 77.4 25 3.9 39.1
18:10 1018 30.06 847 25.01 25.1 77.2 24 3.6 38.6
18:15 1018 30.06 847 25.01 25.1 77.2 24 3.6 38.4
18:20 1018 30.06 847 25.01 25.4 77.7 23 2.7 36.9
18:25 1018 30.06 847 25.01 25 77.1 25 3.9 39
18:30 1018 30.06 847 25.01 24.4 75.9 25 3.5 38.3
18:35 1018 30.06 847 25.01 24.5 76 24 3.1 37.6
18:40 1018 30.06 847 25.01 24.6 76.4 24 2.7 36.8
18:45 1018 30.06 847 25.01 24.9 76.8 23 2.6 36.8
18:50 1018 30.06 847 25.01 24.9 76.9 23 2.7 36.9
18:55 1018 30.06 847 25.01 24.9 76.8 23 2.6 36.8
19:00 1018 30.06 847 25.01 25.6 78.1 23 3.2 37.8
19:05 1018 30.06 847 25.01 25.7 78.2 22 2.9 37.3
19:10 1018 30.06 847 25.01 25.2 77.4 23 2.8 37.1
19:15 1018 30.06 847 25.01 25.6 78.2 23 3.2 37.8
19:20 1018 30.06 847 25.01 25.5 77.9 24 3.5 38.4
19:25 1018 30.06 847 25.01 25.3 77.5 24 3.2 37.8
19:30 1018 30.06 847 25.01 25.3 77.5 23 3.1 37.6
19:35 1018 30.06 847 25.01 25.1 77.1 25 3.8 38.8
19:40 1018 30.06 847 25.01 24.7 76.4 26 4.2 39.6
19:45 1018 30.06 847 25.01 24.3 75.7 27 4.5 40
19:50 1018 30.06 847 25.01 24.2 75.6 28 4.6 40.2
19:55 1018 30.06 847 25.01 24.2 75.5 27 4.3 39.7
20:00 1018 30.06 847 25.01 24.1 75.4 27 4 39.1
20:05 1018 30.06 847 25.01 24.1 75.3 29 4.9 40.9
20:10 1018 30.06 847 25.01 23.9 74.9 29 4.8 40.7
20:15 1018 30.06 847 25.01 23.5 74.4 28 4.1 39.4
20:20 1018 30.06 847 25.01 23.3 73.9 29 4.4 39.9
20:25 1018 30.06 847 25.01 23.3 73.9 30 5 41.1
20:30 1018 30.06 847 25.01 23.2 73.7 31 5.3 41.5
20:35 1018 30.06 847 25.01 23 73.4 31 4.9 40.9
20:40 1018 30.06 847 25.01 22.7 72.8 31 4.9 40.8
20:45 1018 30.06 847 25.01 22.5 72.5 32 5.1 41.2
20:50 1018 30.06 848 25.04 22.3 72.1 32 5.2 41.3
20:55 1018 30.06 848 25.04 22 71.6 34 5.4 41.7
21:00 1018 30.06 848 25.04 21.8 71.2 34 5.2 41.4
21:05 1018 30.06 848 25.04 21.6 70.8 34 5.1 41.2
21:10 1018 30.06 848 25.04 21.4 70.5 33 4.8 40.7
21:15 1019 30.09 848 25.04 21.3 70.3 34 5 41.1
21:20 1019 30.09 848 25.04 21.1 70 34 4.9 40.8
21:25 1019 30.09 848 25.04 20.9 69.6 38 6.2 43.2
21:30 1019 30.09 848 25.04 20.3 68.5 39 6 42.8
21:35 1019 30.09 848 25.04 19.8 67.7 44 7.4 45.4
21:40 1019 30.09 848 25.04 19.2 66.6 46 7.4 45.3
21:45 1019 30.09 848 25.04 19 66.1 45 7.1 44.7
21:50 1019 30.09 848 25.04 18.9 65.9 47 7.5 45.5
21:55 1019 30.09 848 25.04 18.7 65.6 52 8.6 47.5
22:00 1019 30.09 848 25.04 18.5 65.3 48 7.5 45.5
22:05 1019 30.09 848 25.04 18.4 65 52 8.4 47.1
22:10 1019 30.09 848 25.04 18 64.5 51 7.8 46
22:15 1019 30.09 848 25.04 18 64.5 52 8.2 46.7
22:20 1019 30.09 848 25.04 18 64.4 48 7.1 44.8
22:25 1019 30.09 848 25.04 18.1 64.5 50 7.5 45.5
22:30 1019 30.09 848 25.04 17.9 64.1 47 6.7 44
22:35 1019 30.09 848 25.04 18.2 64.8 47 6.8 44.3
22:40 1019 30.09 848 25.04 18.3 65 49 7.6 45.6
22:45 1019 30.09 848 25.04 17.8 64 52 8 46.4
22:50 1019 30.09 848 25.04 17.8 64 51 7.5 45.4
22:55 1019 30.09 848 25.04 17.7 63.9 53 8 46.4
23:00 1019 30.09 848 25.04 17.3 63.2 48 6.4 43.4
23:05 1019 30.09 848 25.04 17.5 63.6 53 8 46.5
23:10 1019 30.09 848 25.04 17 62.6 50 6.7 44.1
23:15 1019 30.09 848 25.04 17.2 62.9 50 6.7 44.1
23:20 1019 30.09 848 25.04 17.4 63.4 48 6.3 43.4
23:25 1019 30.09 848 25.04 17.5 63.5 46 6 42.8
23:30 1019 30.09 848 25.04 17.9 64.2 43 5.2 41.4
23:35 1019 30.09 848 25.04 17.8 64.1 42 5 41
23:40 1019 30.09 848 25.04 17.7 63.8 43 5.1 41.2
23:45 1019 30.09 848 25.04 17.5 63.4 43 5 41
23:50 1019 30.09 848 25.04 17.4 63.3 42 4.5 40.1
23:55 1019 30.09 848 25.04 17.4 63.3 42 4.4 40
24:00 1019 30.09 848 25.04 17.3 63.1 43 4.6 40.3